createdAt,value
2023-01-29T00:03:16.059Z,1.73
2023-01-29T00:08:17.606Z,3.04
2023-01-29T00:13:19.077Z,3.74
2023-01-29T00:18:20.753Z,3.45
2023-01-29T00:23:23.008Z,1.92
2023-01-29T00:28:24.513Z,2.85
2023-01-29T00:33:28.558Z,3.58
2023-01-29T00:38:30.119Z,4.15
2023-01-29T00:43:50.223Z,2.99
2023-01-29T00:48:51.866Z,1.76
2023-01-29T00:53:57.667Z,3.16
2023-01-29T00:58:59.858Z,4.07
2023-01-29T01:04:01.434Z,3.99
2023-01-29T01:09:22.663Z,2.09
2023-01-29T01:14:24.134Z,2.72
2023-01-29T01:19:25.708Z,4.01
2023-01-29T01:24:27.416Z,3.73
2023-01-29T01:29:29.064Z,2.06
2023-01-29T01:34:30.748Z,3.13
2023-01-29T01:39:32.217Z,4.29
2023-01-29T01:44:58.804Z,4.07
2023-01-29T01:50:15.567Z,1.89
2023-01-29T01:55:20.951Z,2.40
2023-01-29T02:00:25.599Z,3.98
2023-01-29T02:05:47.341Z,4.84
2023-01-29T02:10:49.459Z,4.09
2023-01-29T02:15:51.102Z,2.18
2023-01-29T02:21:13.254Z,2.83
2023-01-29T02:26:45.446Z,3.73
2023-01-29T02:31:56.562Z,4.12
2023-01-29T02:37:04.466Z,4.45
2023-01-29T02:42:26.824Z,4.66
2023-01-29T02:47:36.491Z,4.86
2023-01-29T02:52:50.719Z,3.03
2023-01-29T02:57:58.883Z,3.09
2023-01-29T03:03:29.645Z,3.67
2023-01-29T03:08:42.801Z,4.01
2023-01-29T03:13:59.523Z,4.27
2023-01-29T03:19:15.836Z,4.59
2023-01-29T03:24:40.754Z,4.84
2023-01-29T03:30:02.721Z,5.13
2023-01-29T03:35:07.939Z,5.44
2023-01-29T03:40:10.644Z,3.25
2023-01-29T03:45:24.416Z,2.80
2023-01-29T03:50:41.862Z,4.11
2023-01-29T03:55:55.620Z,4.64
2023-01-29T04:01:02.416Z,5.04
2023-01-29T04:06:12.853Z,4.74
2023-01-29T04:11:19.386Z,2.91
2023-01-29T04:16:26.610Z,3.59
2023-01-29T04:21:31.304Z,4.29
2023-01-29T04:26:51.250Z,4.27
2023-01-29T04:31:52.803Z,4.21
2023-01-29T04:37:09.551Z,4.51
2023-01-29T04:42:20.843Z,4.65
2023-01-29T04:47:41.343Z,4.59
2023-01-29T04:53:21.237Z,4.35
2023-01-29T04:58:32.731Z,4.49
2023-01-29T05:03:37.172Z,4.49
2023-01-29T05:08:40.695Z,4.58
2023-01-29T05:13:44.283Z,4.75
2023-01-29T05:18:46.407Z,4.66
2023-01-29T05:24:10.327Z,4.93
2023-01-29T05:29:11.865Z,5.24
2023-01-29T05:34:13.849Z,5.65
2023-01-29T05:39:16.040Z,5.15
2023-01-29T05:44:17.533Z,2.72
2023-01-29T05:49:20.101Z,2.59
2023-01-29T05:54:21.583Z,3.87
2023-01-29T05:59:23.145Z,3.93
2023-01-29T06:04:24.614Z,4.20
2023-01-29T06:09:26.083Z,4.39
2023-01-29T06:14:27.868Z,4.54
2023-01-29T06:19:29.337Z,4.45
2023-01-29T06:24:33.041Z,4.41
2023-01-29T06:29:34.628Z,4.24
2023-01-29T06:34:36.303Z,4.15
2023-01-29T06:39:37.773Z,4.16
2023-01-29T06:44:39.344Z,4.09
2023-01-29T06:49:40.817Z,4.18
2023-01-29T06:54:42.518Z,4.59
2023-01-29T06:59:43.969Z,4.79
2023-01-29T07:04:45.368Z,4.88
2023-01-29T07:09:46.803Z,5.22
2023-01-29T07:14:48.268Z,5.28
2023-01-29T07:19:49.841Z,5.40
2023-01-29T07:24:51.425Z,5.37
2023-01-29T07:29:53.092Z,5.37
2023-01-29T07:34:54.482Z,5.42
2023-01-29T07:39:55.931Z,5.60
2023-01-29T07:44:57.604Z,5.32
2023-01-29T07:49:59.075Z,5.42
2023-01-29T07:55:00.542Z,5.54
2023-01-29T08:00:02.114Z,5.89
2023-01-29T08:05:04.512Z,5.80
2023-01-29T08:10:06.395Z,5.64
2023-01-29T08:15:08.850Z,5.96
2023-01-29T08:20:11.342Z,6.20
2023-01-29T08:25:14.173Z,6.23
2023-01-29T08:30:16.921Z,6.47
2023-01-29T08:35:19.902Z,6.46
2023-01-29T08:40:22.069Z,5.85
2023-01-29T08:45:23.540Z,4.55
2023-01-29T08:50:25.215Z,5.05
2023-01-29T08:55:28.014Z,5.53
2023-01-29T09:00:29.588Z,5.59
2023-01-29T09:05:31.289Z,5.86
2023-01-29T09:10:33.467Z,6.50
2023-01-29T09:15:34.905Z,6.66
2023-01-29T09:20:38.371Z,6.63
2023-01-29T09:25:42.511Z,6.56
2023-01-29T09:30:44.752Z,6.24
2023-01-29T09:35:46.640Z,5.97
2023-01-29T09:40:57.833Z,6.23
2023-01-29T09:46:05.294Z,6.34
2023-01-29T09:51:19.004Z,6.29
2023-01-29T09:56:23.100Z,5.94
2023-01-29T10:01:34.130Z,5.80
2023-01-29T10:07:01.713Z,5.86
2023-01-29T10:12:28.373Z,6.04
2023-01-29T10:17:32.609Z,5.93
2023-01-29T10:22:37.151Z,5.84
2023-01-29T10:27:41.551Z,6.22
2023-01-29T10:32:44.905Z,6.15
2023-01-29T10:37:46.974Z,6.02
2023-01-29T10:42:51.431Z,5.94
2023-01-29T10:48:08.571Z,6.26
2023-01-29T10:53:19.561Z,6.22
2023-01-29T10:58:29.843Z,6.59
2023-01-29T11:03:32.982Z,6.84
2023-01-29T11:08:42.710Z,7.21
2023-01-29T11:14:04.761Z,6.46
2023-01-29T11:19:06.436Z,4.71
2023-01-29T11:24:14.871Z,5.49
2023-01-29T11:29:41.176Z,5.95
2023-01-29T11:35:05.837Z,6.23
2023-01-29T11:40:36.908Z,6.10
2023-01-29T11:45:39.805Z,6.16
2023-01-29T11:50:41.863Z,6.24
2023-01-29T11:55:50.900Z,6.22
2023-01-29T12:00:55.035Z,6.44
2023-01-29T12:06:05.379Z,6.70
2023-01-29T12:11:26.787Z,6.60
2023-01-29T12:16:51.402Z,6.57
2023-01-29T12:22:03.744Z,6.44
2023-01-29T12:27:24.548Z,6.25
2023-01-29T12:32:35.337Z,6.38
2023-01-29T12:37:40.287Z,6.42
2023-01-29T12:42:47.798Z,6.64
2023-01-29T12:47:58.398Z,6.49
2023-01-29T12:53:09.995Z,6.53
2023-01-29T12:58:11.462Z,6.94
2023-01-29T13:03:18.917Z,7.06
2023-01-29T13:08:22.821Z,7.18
2023-01-29T13:13:40.449Z,7.12
2023-01-29T13:19:00.872Z,5.06
2023-01-29T13:24:09.608Z,5.34
2023-01-29T13:29:20.908Z,5.78
2023-01-29T13:34:24.118Z,6.04
2023-01-29T13:39:33.267Z,6.23
2023-01-29T13:44:39.313Z,6.19
2023-01-29T13:49:47.265Z,6.14
2023-01-29T13:54:58.259Z,6.11
2023-01-29T13:59:59.838Z,6.11
2023-01-29T14:05:29.287Z,6.24
2023-01-29T14:10:33.702Z,6.18
2023-01-29T14:15:36.709Z,5.99
2023-01-29T14:20:45.639Z,6.10
2023-01-29T14:25:48.146Z,6.05
2023-01-29T14:30:50.611Z,6.15
2023-01-29T14:35:56.214Z,6.07
2023-01-29T14:41:32.178Z,5.85
2023-01-29T14:46:33.773Z,5.90
2023-01-29T14:51:39.939Z,5.69
2023-01-29T14:56:49.190Z,5.57
2023-01-29T15:01:55.184Z,5.86
2023-01-29T15:07:05.648Z,5.74
2023-01-29T15:12:17.362Z,6.08
2023-01-29T15:17:26.063Z,5.97
2023-01-29T15:22:29.847Z,5.92
2023-01-29T15:27:31.664Z,6.26
2023-01-29T15:32:36.875Z,6.21
2023-01-29T15:37:39.459Z,6.05
2023-01-29T15:42:46.339Z,6.16
2023-01-29T15:47:48.552Z,6.03
2023-01-29T15:52:54.104Z,6.06
2023-01-29T15:57:57.113Z,6.23
2023-01-29T16:03:01.923Z,6.24
2023-01-29T16:08:04.455Z,6.08
2023-01-29T16:13:29.589Z,6.01
2023-01-29T16:18:39.484Z,6.01
2023-01-29T16:23:49.722Z,6.05
2023-01-29T16:28:52.054Z,6.08
2023-01-29T16:33:56.218Z,6.06
2023-01-29T16:39:05.813Z,6.34
2023-01-29T16:44:17.005Z,6.54
2023-01-29T16:49:30.564Z,6.32
2023-01-29T16:54:32.032Z,6.63
2023-01-29T16:59:37.911Z,6.67
2023-01-29T17:04:41.782Z,6.49
2023-01-29T17:09:43.710Z,6.45
2023-01-29T17:15:25.526Z,6.81
2023-01-29T17:20:27.936Z,6.57
2023-01-29T17:25:29.594Z,6.49
2023-01-29T17:30:36.412Z,6.62
2023-01-29T17:35:38.064Z,6.77
2023-01-29T17:40:55.199Z,6.63
2023-01-29T17:45:56.860Z,5.93
2023-01-29T17:51:02.463Z,5.88
2023-01-29T17:56:04.813Z,5.83
2023-01-29T18:01:06.303Z,6.05
2023-01-29T18:06:09.130Z,6.17
2023-01-29T18:11:12.218Z,6.40
2023-01-29T18:16:13.972Z,6.56
2023-01-29T18:21:15.667Z,6.50
2023-01-29T18:26:17.373Z,6.31
2023-01-29T18:31:18.950Z,6.19
2023-01-29T18:36:20.601Z,6.23
2023-01-29T18:41:22.164Z,5.86
2023-01-29T18:46:24.407Z,6.00
2023-01-29T18:51:25.922Z,6.06
2023-01-29T18:56:27.410Z,6.04
2023-01-29T19:01:29.889Z,6.15
2023-01-29T19:06:37.029Z,5.91
2023-01-29T19:11:38.765Z,5.95
2023-01-29T19:16:40.751Z,6.03
2023-01-29T19:21:42.833Z,5.88
2023-01-29T19:26:44.344Z,5.83
2023-01-29T19:31:46.961Z,5.98
2023-01-29T19:36:48.478Z,6.17
2023-01-29T19:41:49.943Z,6.26
2023-01-29T19:46:51.523Z,5.96
2023-01-29T19:51:55.549Z,6.22
2023-01-29T19:56:57.119Z,6.19
2023-01-29T20:01:58.632Z,6.29
2023-01-29T20:07:00.164Z,6.55
2023-01-29T20:12:01.840Z,6.27
2023-01-29T20:17:03.305Z,6.23
2023-01-29T20:22:05.498Z,6.44
2023-01-29T20:27:10.344Z,6.39
2023-01-29T20:32:13.357Z,5.99
2023-01-29T20:37:14.819Z,5.95
2023-01-29T20:42:16.400Z,5.97
2023-01-29T20:47:18.175Z,6.11
2023-01-29T20:52:19.641Z,6.13
2023-01-29T20:57:21.312Z,5.93
2023-01-29T21:02:22.977Z,5.78
2023-01-29T21:07:24.563Z,5.74
2023-01-29T21:12:26.132Z,5.75
2023-01-29T21:17:28.225Z,5.77
2023-01-29T21:22:31.018Z,5.89
2023-01-29T21:27:32.488Z,5.89
2023-01-29T21:32:34.266Z,6.11
2023-01-29T21:37:37.387Z,6.30
2023-01-29T21:42:57.480Z,6.25
2023-01-29T21:47:58.976Z,6.06
2023-01-29T21:53:01.254Z,6.01
2023-01-29T21:58:03.839Z,6.23
2023-01-29T22:03:06.389Z,6.25
2023-01-29T22:08:07.913Z,6.13
2023-01-29T22:13:09.579Z,6.19
2023-01-29T22:18:11.158Z,6.47
2023-01-29T22:23:13.339Z,6.36
2023-01-29T22:28:18.296Z,6.38
2023-01-29T22:33:20.171Z,6.44
2023-01-29T22:38:23.393Z,6.35
2023-01-29T22:43:25.468Z,6.27
2023-01-29T22:48:28.169Z,6.49
2023-01-29T22:53:29.643Z,6.65
2023-01-29T22:58:31.207Z,6.37
2023-01-29T23:03:33.208Z,6.60
2023-01-29T23:08:34.764Z,6.55
2023-01-29T23:13:36.241Z,6.49
2023-01-29T23:18:37.812Z,6.33
2023-01-29T23:23:39.904Z,5.99
2023-01-29T23:28:41.669Z,5.85
2023-01-29T23:33:43.550Z,6.03
2023-01-29T23:38:45.125Z,6.11
2023-01-29T23:43:46.694Z,6.22
2023-01-29T23:48:48.163Z,5.90
2023-01-29T23:53:49.633Z,6.05
2023-01-29T23:58:55.326Z,6.20
